sensor_id;sensor_type;location;lat;lon;timestamp;temperature;humidity
4962;DHT22;2496;52.468;13.342;2022-09-17T00:01:27;12.00;99.90
4962;DHT22;2496;52.468;13.342;2022-09-17T00:03:56;12.00;99.90
4962;DHT22;2496;52.468;13.342;2022-09-17T00:06:29;12.00;99.90
4962;DHT22;2496;52.468;13.342;2022-09-17T00:08:56;12.00;99.90
4962;DHT22;2496;52.468;13.342;2022-09-17T00:11:25;12.10;99.90
4962;DHT22;2496;52.468;13.342;2022-09-17T00:13:53;12.10;99.90
4962;DHT22;2496;52.468;13.342;2022-09-17T00:16:23;12.10;99.90
4962;DHT22;2496;52.468;13.342;2022-09-17T00:18:52;12.10;99.90
4962;DHT22;2496;52.468;13.342;2022-09-17T00:21:19;12.10;99.90
4962;DHT22;2496;52.468;13.342;2022-09-17T00:23:46;12.10;99.90
4962;DHT22;2496;52.468;13.342;2022-09-17T00:26:13;12.10;99.90
4962;DHT22;2496;52.468;13.342;2022-09-17T00:28:40;12.10;99.90
4962;DHT22;2496;52.468;13.342;2022-09-17T00:31:10;12.10;99.90
4962;DHT22;2496;52.468;13.342;2022-09-17T00:33:37;12.10;99.90
4962;DHT22;2496;52.468;13.342;2022-09-17T00:36:06;12.10;99.90
4962;DHT22;2496;52.468;13.342;2022-09-17T00:38:33;12.10;99.90
4962;DHT22;2496;52.468;13.342;2022-09-17T00:41:01;12.10;99.90
4962;DHT22;2496;52.468;13.342;2022-09-17T00:43:38;12.10;99.90
4962;DHT22;2496;52.468;13.342;2022-09-17T00:46:08;12.10;99.90
4962;DHT22;2496;52.468;13.342;2022-09-17T00:48:36;12.10;99.90
4962;DHT22;2496;52.468;13.342;2022-09-17T00:51:07;12.10;99.90
4962;DHT22;2496;52.468;13.342;2022-09-17T00:53:35;12.10;99.90
4962;DHT22;2496;52.468;13.342;2022-09-17T00:56:05;12.10;99.90
4962;DHT22;2496;52.468;13.342;2022-09-17T00:58:35;12.10;99.90
4962;DHT22;2496;52.468;13.342;2022-09-17T01:01:02;12.10;99.90
4962;DHT22;2496;52.468;13.342;2022-09-17T01:03:29;12.10;99.90
4962;DHT22;2496;52.468;13.342;2022-09-17T01:06:04;12.10;99.90
4962;DHT22;2496;52.468;13.342;2022-09-17T01:08:47;12.10;99.90
4962;DHT22;2496;52.468;13.342;2022-09-17T01:11:53;12.10;99.90
4962;DHT22;2496;52.468;13.342;2022-09-17T01:14:34;12.10;99.90
4962;DHT22;2496;52.468;13.342;2022-09-17T01:17:10;12.10;99.90
4962;DHT22;2496;52.468;13.342;2022-09-17T01:20:21;12.10;99.90
4962;DHT22;2496;52.468;13.342;2022-09-17T01:23:05;12.10;99.90
4962;DHT22;2496;52.468;13.342;2022-09-17T01:25:42;12.10;99.90
4962;DHT22;2496;52.468;13.342;2022-09-17T01:31:25;12.10;99.90
4962;DHT22;2496;52.468;13.342;2022-09-17T01:34:00;12.20;99.90
4962;DHT22;2496;52.468;13.342;2022-09-17T01:36:41;12.10;99.90
4962;DHT22;2496;52.468;13.342;2022-09-17T01:39:17;12.10;99.90
4962;DHT22;2496;52.468;13.342;2022-09-17T01:41:52;12.10;99.90
4962;DHT22;2496;52.468;13.342;2022-09-17T01:44:26;12.20;99.90
4962;DHT22;2496;52.468;13.342;2022-09-17T01:46:58;12.20;99.90
4962;DHT22;2496;52.468;13.342;2022-09-17T01:49:28;12.20;99.90
4962;DHT22;2496;52.468;13.342;2022-09-17T01:51:57;12.20;99.90
4962;DHT22;2496;52.468;13.342;2022-09-17T01:54:29;12.20;99.90
4962;DHT22;2496;52.468;13.342;2022-09-17T01:57:00;12.20;99.90
4962;DHT22;2496;52.468;13.342;2022-09-17T01:59:30;12.20;99.90
4962;DHT22;2496;52.468;13.342;2022-09-17T02:02:06;12.20;99.90
4962;DHT22;2496;52.468;13.342;2022-09-17T02:04:37;12.20;99.90
4962;DHT22;2496;52.468;13.342;2022-09-17T02:07:10;12.20;99.90
4962;DHT22;2496;52.468;13.342;2022-09-17T02:09:42;12.20;99.90
4962;DHT22;2496;52.468;13.342;2022-09-17T02:12:13;12.20;99.90
4962;DHT22;2496;52.468;13.342;2022-09-17T02:14:45;12.20;99.90
4962;DHT22;2496;52.468;13.342;2022-09-17T02:17:19;12.20;99.90
4962;DHT22;2496;52.468;13.342;2022-09-17T02:19:47;12.20;99.90
4962;DHT22;2496;52.468;13.342;2022-09-17T02:22:20;12.20;99.90
4962;DHT22;2496;52.468;13.342;2022-09-17T02:24:56;12.20;99.90
4962;DHT22;2496;52.468;13.342;2022-09-17T02:27:33;12.20;99.90
4962;DHT22;2496;52.468;13.342;2022-09-17T02:30:04;12.20;99.90
4962;DHT22;2496;52.468;13.342;2022-09-17T02:32:33;12.20;99.90
4962;DHT22;2496;52.468;13.342;2022-09-17T02:35:00;12.20;99.90
4962;DHT22;2496;52.468;13.342;2022-09-17T02:37:27;12.30;99.90
4962;DHT22;2496;52.468;13.342;2022-09-17T02:39:54;12.30;99.90
4962;DHT22;2496;52.468;13.342;2022-09-17T02:42:25;12.30;99.90
4962;DHT22;2496;52.468;13.342;2022-09-17T02:45:00;12.30;99.90
4962;DHT22;2496;52.468;13.342;2022-09-17T02:47:55;12.30;99.90
4962;DHT22;2496;52.468;13.342;2022-09-17T02:53:26;12.30;99.90
4962;DHT22;2496;52.468;13.342;2022-09-17T02:56:00;12.30;99.90
4962;DHT22;2496;52.468;13.342;2022-09-17T02:58:37;12.30;99.90
4962;DHT22;2496;52.468;13.342;2022-09-17T03:01:11;12.30;99.90
4962;DHT22;2496;52.468;13.342;2022-09-17T03:03:42;12.30;99.90
4962;DHT22;2496;52.468;13.342;2022-09-17T03:06:10;12.30;99.90
4962;DHT22;2496;52.468;13.342;2022-09-17T03:08:39;12.30;99.90
4962;DHT22;2496;52.468;13.342;2022-09-17T03:11:07;12.30;99.90
4962;DHT22;2496;52.468;13.342;2022-09-17T03:13:35;12.30;99.90
4962;DHT22;2496;52.468;13.342;2022-09-17T03:16:02;12.30;99.90
4962;DHT22;2496;52.468;13.342;2022-09-17T03:18:29;12.30;99.90
4962;DHT22;2496;52.468;13.342;2022-09-17T03:20:57;12.30;99.90
4962;DHT22;2496;52.468;13.342;2022-09-17T03:23:24;12.30;99.90
4962;DHT22;2496;52.468;13.342;2022-09-17T03:25:52;12.40;99.90
4962;DHT22;2496;52.468;13.342;2022-09-17T03:28:21;12.30;99.90
4962;DHT22;2496;52.468;13.342;2022-09-17T03:30:50;12.40;99.90
4962;DHT22;2496;52.468;13.342;2022-09-17T03:33:17;12.40;99.90
4962;DHT22;2496;52.468;13.342;2022-09-17T03:35:45;12.40;99.90
4962;DHT22;2496;52.468;13.342;2022-09-17T03:38:14;12.40;99.90
4962;DHT22;2496;52.468;13.342;2022-09-17T03:40:42;12.40;99.90
4962;DHT22;2496;52.468;13.342;2022-09-17T03:43:10;12.40;99.90
4962;DHT22;2496;52.468;13.342;2022-09-17T03:45:39;12.40;99.90
4962;DHT22;2496;52.468;13.342;2022-09-17T03:48:09;12.40;99.90
4962;DHT22;2496;52.468;13.342;2022-09-17T03:50:39;12.40;99.90
4962;DHT22;2496;52.468;13.342;2022-09-17T03:53:09;12.40;99.90
4962;DHT22;2496;52.468;13.342;2022-09-17T03:55:39;12.40;99.90
4962;DHT22;2496;52.468;13.342;2022-09-17T03:58:07;12.40;99.90
4962;DHT22;2496;52.468;13.342;2022-09-17T04:00:34;12.40;99.90
4962;DHT22;2496;52.468;13.342;2022-09-17T04:03:02;12.40;99.90
4962;DHT22;2496;52.468;13.342;2022-09-17T04:05:29;12.40;99.90
4962;DHT22;2496;52.468;13.342;2022-09-17T04:07:56;12.40;99.90
4962;DHT22;2496;52.468;13.342;2022-09-17T04:10:24;12.50;99.90
4962;DHT22;2496;52.468;13.342;2022-09-17T04:12:53;12.50;99.90
4962;DHT22;2496;52.468;13.342;2022-09-17T04:15:20;12.50;99.90
4962;DHT22;2496;52.468;13.342;2022-09-17T04:17:48;12.50;99.90
4962;DHT22;2496;52.468;13.342;2022-09-17T04:20:16;12.50;99.90
4962;DHT22;2496;52.468;13.342;2022-09-17T04:22:45;12.50;99.90
4962;DHT22;2496;52.468;13.342;2022-09-17T04:25:15;12.50;99.90
4962;DHT22;2496;52.468;13.342;2022-09-17T04:27:43;12.50;99.90
4962;DHT22;2496;52.468;13.342;2022-09-17T04:30:12;12.50;99.90
4962;DHT22;2496;52.468;13.342;2022-09-17T04:32:39;12.50;99.90
4962;DHT22;2496;52.468;13.342;2022-09-17T04:35:07;12.50;99.90
4962;DHT22;2496;52.468;13.342;2022-09-17T04:37:34;12.50;99.90
4962;DHT22;2496;52.468;13.342;2022-09-17T04:40:03;12.50;99.90
4962;DHT22;2496;52.468;13.342;2022-09-17T04:42:30;12.50;99.90
4962;DHT22;2496;52.468;13.342;2022-09-17T04:44:57;12.50;99.90
4962;DHT22;2496;52.468;13.342;2022-09-17T04:47:25;12.50;99.90
4962;DHT22;2496;52.468;13.342;2022-09-17T04:49:53;12.50;99.90
4962;DHT22;2496;52.468;13.342;2022-09-17T04:52:23;12.50;99.90
4962;DHT22;2496;52.468;13.342;2022-09-17T04:54:51;12.50;99.90
4962;DHT22;2496;52.468;13.342;2022-09-17T04:57:19;12.50;99.90
4962;DHT22;2496;52.468;13.342;2022-09-17T04:59:49;12.50;99.90
4962;DHT22;2496;52.468;13.342;2022-09-17T05:02:19;12.50;99.90
4962;DHT22;2496;52.468;13.342;2022-09-17T05:04:51;12.50;99.90
4962;DHT22;2496;52.468;13.342;2022-09-17T05:07:21;12.50;99.90
4962;DHT22;2496;52.468;13.342;2022-09-17T05:09:48;12.50;99.90
4962;DHT22;2496;52.468;13.342;2022-09-17T05:12:17;12.50;99.90
4962;DHT22;2496;52.468;13.342;2022-09-17T05:14:47;12.50;99.90
4962;DHT22;2496;52.468;13.342;2022-09-17T05:17:16;12.50;99.90
4962;DHT22;2496;52.468;13.342;2022-09-17T05:19:45;12.50;99.90
4962;DHT22;2496;52.468;13.342;2022-09-17T05:22:16;12.50;99.90
4962;DHT22;2496;52.468;13.342;2022-09-17T05:24:44;12.60;99.90
4962;DHT22;2496;52.468;13.342;2022-09-17T05:27:11;12.60;99.90
4962;DHT22;2496;52.468;13.342;2022-09-17T05:29:38;12.60;99.90
4962;DHT22;2496;52.468;13.342;2022-09-17T05:32:08;12.60;99.90
4962;DHT22;2496;52.468;13.342;2022-09-17T05:34:35;12.60;99.90
4962;DHT22;2496;52.468;13.342;2022-09-17T05:37:03;12.70;99.90
4962;DHT22;2496;52.468;13.342;2022-09-17T05:39:31;12.70;99.90
4962;DHT22;2496;52.468;13.342;2022-09-17T05:41:58;12.70;99.90
4962;DHT22;2496;52.468;13.342;2022-09-17T05:44:25;12.70;99.90
4962;DHT22;2496;52.468;13.342;2022-09-17T05:46:52;12.80;99.90
4962;DHT22;2496;52.468;13.342;2022-09-17T05:49:19;12.80;99.90
4962;DHT22;2496;52.468;13.342;2022-09-17T05:51:46;12.80;99.90
4962;DHT22;2496;52.468;13.342;2022-09-17T05:54:13;12.80;99.90
4962;DHT22;2496;52.468;13.342;2022-09-17T05:56:41;12.80;99.90
4962;DHT22;2496;52.468;13.342;2022-09-17T05:59:08;12.80;99.90
4962;DHT22;2496;52.468;13.342;2022-09-17T06:01:34;12.90;99.90
4962;DHT22;2496;52.468;13.342;2022-09-17T06:04:01;12.90;99.90
4962;DHT22;2496;52.468;13.342;2022-09-17T06:06:29;12.90;99.90
4962;DHT22;2496;52.468;13.342;2022-09-17T06:08:58;12.90;99.90
4962;DHT22;2496;52.468;13.342;2022-09-17T06:11:25;12.80;99.90
4962;DHT22;2496;52.468;13.342;2022-09-17T06:13:53;12.80;99.90
4962;DHT22;2496;52.468;13.342;2022-09-17T06:16:21;12.80;99.90
4962;DHT22;2496;52.468;13.342;2022-09-17T06:18:48;12.80;99.90
4962;DHT22;2496;52.468;13.342;2022-09-17T06:21:17;12.80;99.90
4962;DHT22;2496;52.468;13.342;2022-09-17T06:23:49;12.80;99.90
4962;DHT22;2496;52.468;13.342;2022-09-17T06:26:16;12.90;99.90
4962;DHT22;2496;52.468;13.342;2022-09-17T06:28:43;12.90;99.90
4962;DHT22;2496;52.468;13.342;2022-09-17T06:31:12;12.90;99.90
4962;DHT22;2496;52.468;13.342;2022-09-17T06:33:39;12.90;99.90
4962;DHT22;2496;52.468;13.342;2022-09-17T06:36:08;12.90;99.90
4962;DHT22;2496;52.468;13.342;2022-09-17T06:38:36;12.90;99.90
4962;DHT22;2496;52.468;13.342;2022-09-17T06:41:04;13.00;99.90
4962;DHT22;2496;52.468;13.342;2022-09-17T06:43:30;13.00;99.90
4962;DHT22;2496;52.468;13.342;2022-09-17T06:45:59;13.10;99.90
4962;DHT22;2496;52.468;13.342;2022-09-17T06:48:28;13.10;99.90
4962;DHT22;2496;52.468;13.342;2022-09-17T06:51:01;13.00;99.90
4962;DHT22;2496;52.468;13.342;2022-09-17T06:53:28;13.00;99.90
4962;DHT22;2496;52.468;13.342;2022-09-17T06:55:56;13.00;99.90
4962;DHT22;2496;52.468;13.342;2022-09-17T06:58:23;12.90;99.90
4962;DHT22;2496;52.468;13.342;2022-09-17T07:00:57;12.90;99.90
4962;DHT22;2496;52.468;13.342;2022-09-17T07:03:24;13.00;99.90
4962;DHT22;2496;52.468;13.342;2022-09-17T07:05:52;13.00;99.90
4962;DHT22;2496;52.468;13.342;2022-09-17T07:08:19;13.00;99.90
4962;DHT22;2496;52.468;13.342;2022-09-17T07:10:46;13.00;99.90
4962;DHT22;2496;52.468;13.342;2022-09-17T07:13:12;13.00;99.90
4962;DHT22;2496;52.468;13.342;2022-09-17T07:15:39;13.00;99.90
4962;DHT22;2496;52.468;13.342;2022-09-17T07:18:07;13.00;99.90
4962;DHT22;2496;52.468;13.342;2022-09-17T07:20:35;13.10;99.90
4962;DHT22;2496;52.468;13.342;2022-09-17T07:23:03;13.10;99.90
4962;DHT22;2496;52.468;13.342;2022-09-17T07:25:30;13.20;99.90
4962;DHT22;2496;52.468;13.342;2022-09-17T07:27:57;13.20;99.90
4962;DHT22;2496;52.468;13.342;2022-09-17T07:30:24;13.30;99.90
4962;DHT22;2496;52.468;13.342;2022-09-17T07:32:51;13.40;99.90
4962;DHT22;2496;52.468;13.342;2022-09-17T07:35:18;13.40;99.90
4962;DHT22;2496;52.468;13.342;2022-09-17T07:37:44;13.40;99.90
4962;DHT22;2496;52.468;13.342;2022-09-17T07:40:13;13.50;99.90
4962;DHT22;2496;52.468;13.342;2022-09-17T07:42:40;13.50;99.90
4962;DHT22;2496;52.468;13.342;2022-09-17T07:45:07;13.50;99.90
4962;DHT22;2496;52.468;13.342;2022-09-17T07:47:38;13.60;99.90
4962;DHT22;2496;52.468;13.342;2022-09-17T07:50:06;13.60;99.90
4962;DHT22;2496;52.468;13.342;2022-09-17T07:52:34;13.70;99.90
4962;DHT22;2496;52.468;13.342;2022-09-17T07:55:00;13.80;99.90
4962;DHT22;2496;52.468;13.342;2022-09-17T07:57:29;13.80;99.90
4962;DHT22;2496;52.468;13.342;2022-09-17T07:59:55;13.90;99.90
4962;DHT22;2496;52.468;13.342;2022-09-17T08:02:23;13.90;99.90
4962;DHT22;2496;52.468;13.342;2022-09-17T08:04:49;13.90;99.90
4962;DHT22;2496;52.468;13.342;2022-09-17T08:07:16;14.00;99.90
4962;DHT22;2496;52.468;13.342;2022-09-17T08:09:43;14.10;99.90
4962;DHT22;2496;52.468;13.342;2022-09-17T08:12:10;14.10;99.90
4962;DHT22;2496;52.468;13.342;2022-09-17T08:14:38;14.20;99.90
4962;DHT22;2496;52.468;13.342;2022-09-17T08:17:06;14.20;99.90
4962;DHT22;2496;52.468;13.342;2022-09-17T08:19:33;14.20;99.90
4962;DHT22;2496;52.468;13.342;2022-09-17T08:22:00;14.20;99.90
4962;DHT22;2496;52.468;13.342;2022-09-17T08:24:27;14.20;99.90
4962;DHT22;2496;52.468;13.342;2022-09-17T08:26:54;14.30;99.90
4962;DHT22;2496;52.468;13.342;2022-09-17T08:29:21;14.40;99.90
4962;DHT22;2496;52.468;13.342;2022-09-17T08:31:49;14.50;99.90
4962;DHT22;2496;52.468;13.342;2022-09-17T08:34:16;14.60;99.90
4962;DHT22;2496;52.468;13.342;2022-09-17T08:36:43;14.60;99.90
4962;DHT22;2496;52.468;13.342;2022-09-17T08:39:10;14.70;99.90
4962;DHT22;2496;52.468;13.342;2022-09-17T08:41:48;14.60;99.90
4962;DHT22;2496;52.468;13.342;2022-09-17T08:44:24;14.50;99.90
4962;DHT22;2496;52.468;13.342;2022-09-17T08:47:01;14.50;99.90
4962;DHT22;2496;52.468;13.342;2022-09-17T08:49:38;14.60;99.90
4962;DHT22;2496;52.468;13.342;2022-09-17T08:55:21;15.50;99.90
4962;DHT22;2496;52.468;13.342;2022-09-17T08:57:55;15.90;99.90
4962;DHT22;2496;52.468;13.342;2022-09-17T09:00:28;16.00;99.90
4962;DHT22;2496;52.468;13.342;2022-09-17T09:03:14;15.90;99.90
4962;DHT22;2496;52.468;13.342;2022-09-17T09:05:47;15.70;99.90
4962;DHT22;2496;52.468;13.342;2022-09-17T09:08:19;15.80;99.90
4962;DHT22;2496;52.468;13.342;2022-09-17T09:10:50;15.90;99.90
4962;DHT22;2496;52.468;13.342;2022-09-17T09:13:19;15.80;99.90
4962;DHT22;2496;52.468;13.342;2022-09-17T09:15:52;15.70;99.90
4962;DHT22;2496;52.468;13.342;2022-09-17T09:18:23;15.70;99.90
4962;DHT22;2496;52.468;13.342;2022-09-17T09:20:52;15.80;99.90
4962;DHT22;2496;52.468;13.342;2022-09-17T09:23:28;16.00;99.90
4962;DHT22;2496;52.468;13.342;2022-09-17T09:26:05;16.20;99.90
4962;DHT22;2496;52.468;13.342;2022-09-17T09:28:44;16.40;99.90
4962;DHT22;2496;52.468;13.342;2022-09-17T09:31:31;16.50;99.90
4962;DHT22;2496;52.468;13.342;2022-09-17T09:34:02;16.50;99.90
4962;DHT22;2496;52.468;13.342;2022-09-17T09:36:32;16.40;99.90
4962;DHT22;2496;52.468;13.342;2022-09-17T09:39:02;16.30;99.90
4962;DHT22;2496;52.468;13.342;2022-09-17T09:41:33;16.00;99.90
4962;DHT22;2496;52.468;13.342;2022-09-17T09:44:04;15.80;99.90
4962;DHT22;2496;52.468;13.342;2022-09-17T09:46:54;15.70;99.90
4962;DHT22;2496;52.468;13.342;2022-09-17T09:49:42;15.60;99.90
4962;DHT22;2496;52.468;13.342;2022-09-17T09:52:22;15.40;99.90
4962;DHT22;2496;52.468;13.342;2022-09-17T09:55:02;15.20;99.90
4962;DHT22;2496;52.468;13.342;2022-09-17T09:57:40;15.10;99.90
4962;DHT22;2496;52.468;13.342;2022-09-17T10:00:27;15.00;99.90
4962;DHT22;2496;52.468;13.342;2022-09-17T10:02:58;14.90;99.90
4962;DHT22;2496;52.468;13.342;2022-09-17T10:05:29;14.90;99.90
4962;DHT22;2496;52.468;13.342;2022-09-17T10:07:56;15.00;99.90
4962;DHT22;2496;52.468;13.342;2022-09-17T10:10:23;15.20;99.90
4962;DHT22;2496;52.468;13.342;2022-09-17T10:13:04;15.40;99.90
4962;DHT22;2496;52.468;13.342;2022-09-17T10:15:32;15.50;99.90
4962;DHT22;2496;52.468;13.342;2022-09-17T10:18:16;15.70;99.90
4962;DHT22;2496;52.468;13.342;2022-09-17T10:20:56;15.80;99.90
4962;DHT22;2496;52.468;13.342;2022-09-17T10:23:25;16.00;99.90
4962;DHT22;2496;52.468;13.342;2022-09-17T10:25:53;16.10;99.90
4962;DHT22;2496;52.468;13.342;2022-09-17T10:28:43;16.10;99.90
4962;DHT22;2496;52.468;13.342;2022-09-17T10:31:11;16.20;99.90
4962;DHT22;2496;52.468;13.342;2022-09-17T10:33:49;16.20;99.90
4962;DHT22;2496;52.468;13.342;2022-09-17T10:36:35;16.20;99.90
4962;DHT22;2496;52.468;13.342;2022-09-17T10:39:18;16.00;99.90
4962;DHT22;2496;52.468;13.342;2022-09-17T10:41:53;15.80;99.90
4962;DHT22;2496;52.468;13.342;2022-09-17T10:44:22;15.70;99.90
4962;DHT22;2496;52.468;13.342;2022-09-17T10:46:50;15.60;99.90
4962;DHT22;2496;52.468;13.342;2022-09-17T10:49:26;15.50;99.90
4962;DHT22;2496;52.468;13.342;2022-09-17T10:52:12;15.50;99.90
4962;DHT22;2496;52.468;13.342;2022-09-17T10:54:59;15.60;99.90
4962;DHT22;2496;52.468;13.342;2022-09-17T10:57:41;15.60;99.90
4962;DHT22;2496;52.468;13.342;2022-09-17T11:00:12;15.50;99.90
4962;DHT22;2496;52.468;13.342;2022-09-17T11:03:22;15.50;99.90
4962;DHT22;2496;52.468;13.342;2022-09-17T11:06:29;15.40;99.90
4962;DHT22;2496;52.468;13.342;2022-09-17T11:09:09;15.40;99.90
4962;DHT22;2496;52.468;13.342;2022-09-17T11:11:47;15.30;99.90
4962;DHT22;2496;52.468;13.342;2022-09-17T11:14:37;15.30;99.90
4962;DHT22;2496;52.468;13.342;2022-09-17T11:17:12;15.30;99.90
4962;DHT22;2496;52.468;13.342;2022-09-17T11:19:50;15.30;99.90
4962;DHT22;2496;52.468;13.342;2022-09-17T11:22:25;15.20;99.90
4962;DHT22;2496;52.468;13.342;2022-09-17T11:25:16;15.30;99.90
4962;DHT22;2496;52.468;13.342;2022-09-17T11:27:57;15.50;99.90
4962;DHT22;2496;52.468;13.342;2022-09-17T11:30:29;15.60;99.90
4962;DHT22;2496;52.468;13.342;2022-09-17T11:33:16;15.80;99.90
4962;DHT22;2496;52.468;13.342;2022-09-17T11:35:50;15.80;99.90
4962;DHT22;2496;52.468;13.342;2022-09-17T11:38:22;15.80;99.90
4962;DHT22;2496;52.468;13.342;2022-09-17T11:40:58;15.70;99.90
4962;DHT22;2496;52.468;13.342;2022-09-17T11:43:28;15.60;99.90
4962;DHT22;2496;52.468;13.342;2022-09-17T11:45:59;15.50;99.90
4962;DHT22;2496;52.468;13.342;2022-09-17T11:48:32;15.50;99.90
4962;DHT22;2496;52.468;13.342;2022-09-17T11:51:07;15.60;99.90
4962;DHT22;2496;52.468;13.342;2022-09-17T11:53:42;15.80;99.90
4962;DHT22;2496;52.468;13.342;2022-09-17T11:56:16;15.80;99.90
4962;DHT22;2496;52.468;13.342;2022-09-17T11:58:47;15.90;99.90
4962;DHT22;2496;52.468;13.342;2022-09-17T12:01:20;15.90;99.90
4962;DHT22;2496;52.468;13.342;2022-09-17T12:03:54;15.90;99.90
4962;DHT22;2496;52.468;13.342;2022-09-17T12:06:30;15.90;99.90
4962;DHT22;2496;52.468;13.342;2022-09-17T12:09:02;15.90;99.90
4962;DHT22;2496;52.468;13.342;2022-09-17T12:11:36;15.80;99.90
4962;DHT22;2496;52.468;13.342;2022-09-17T12:14:12;15.80;99.90
4962;DHT22;2496;52.468;13.342;2022-09-17T12:16:43;15.90;99.90
4962;DHT22;2496;52.468;13.342;2022-09-17T12:19:15;15.90;99.90
4962;DHT22;2496;52.468;13.342;2022-09-17T12:21:45;15.90;99.90
4962;DHT22;2496;52.468;13.342;2022-09-17T12:24:18;15.80;99.90
4962;DHT22;2496;52.468;13.342;2022-09-17T12:27:13;15.70;99.90
4962;DHT22;2496;52.468;13.342;2022-09-17T12:30:02;15.50;99.90
4962;DHT22;2496;52.468;13.342;2022-09-17T12:32:53;15.30;99.90
4962;DHT22;2496;52.468;13.342;2022-09-17T12:35:41;15.20;99.90
4962;DHT22;2496;52.468;13.342;2022-09-17T12:38:23;15.20;99.90
4962;DHT22;2496;52.468;13.342;2022-09-17T12:40:56;15.30;99.90
4962;DHT22;2496;52.468;13.342;2022-09-17T12:43:49;15.40;99.90
4962;DHT22;2496;52.468;13.342;2022-09-17T12:46:32;15.50;99.90
4962;DHT22;2496;52.468;13.342;2022-09-17T12:49:24;15.60;99.90
4962;DHT22;2496;52.468;13.342;2022-09-17T12:51:56;15.80;99.90
4962;DHT22;2496;52.468;13.342;2022-09-17T12:54:45;15.80;99.90
4962;DHT22;2496;52.468;13.342;2022-09-17T12:57:24;15.80;99.90
4962;DHT22;2496;52.468;13.342;2022-09-17T12:59:57;15.70;99.90
4962;DHT22;2496;52.468;13.342;2022-09-17T13:02:29;15.60;99.90
4962;DHT22;2496;52.468;13.342;2022-09-17T13:05:23;15.60;99.90
4962;DHT22;2496;52.468;13.342;2022-09-17T13:08:25;15.50;99.90
4962;DHT22;2496;52.468;13.342;2022-09-17T13:11:15;15.50;99.90
4962;DHT22;2496;52.468;13.342;2022-09-17T13:13:52;15.50;99.90
4962;DHT22;2496;52.468;13.342;2022-09-17T13:16:31;15.60;99.90
4962;DHT22;2496;52.468;13.342;2022-09-17T13:19:03;15.80;99.90
4962;DHT22;2496;52.468;13.342;2022-09-17T13:21:41;15.90;99.90
4962;DHT22;2496;52.468;13.342;2022-09-17T13:24:16;15.90;99.90
4962;DHT22;2496;52.468;13.342;2022-09-17T13:26:43;16.00;99.90
4962;DHT22;2496;52.468;13.342;2022-09-17T13:29:11;16.10;99.90
4962;DHT22;2496;52.468;13.342;2022-09-17T13:31:49;16.10;99.90
4962;DHT22;2496;52.468;13.342;2022-09-17T13:34:27;16.10;99.90
4962;DHT22;2496;52.468;13.342;2022-09-17T13:36:55;16.10;99.60
4962;DHT22;2496;52.468;13.342;2022-09-17T13:39:43;16.10;99.40
4962;DHT22;2496;52.468;13.342;2022-09-17T13:42:17;16.10;99.30
4962;DHT22;2496;52.468;13.342;2022-09-17T13:44:47;16.10;99.10
4962;DHT22;2496;52.468;13.342;2022-09-17T13:47:26;16.20;98.80
4962;DHT22;2496;52.468;13.342;2022-09-17T13:49:57;16.20;98.80
4962;DHT22;2496;52.468;13.342;2022-09-17T13:52:36;16.10;98.40
4962;DHT22;2496;52.468;13.342;2022-09-17T13:55:05;16.10;98.30
4962;DHT22;2496;52.468;13.342;2022-09-17T13:57:44;16.10;98.50
4962;DHT22;2496;52.468;13.342;2022-09-17T14:06:49;16.10;98.50
4962;DHT22;2496;52.468;13.342;2022-09-17T14:09:32;16.00;98.40
4962;DHT22;2496;52.468;13.342;2022-09-17T14:12:00;15.90;98.50
4962;DHT22;2496;52.468;13.342;2022-09-17T14:14:46;15.90;98.40
4962;DHT22;2496;52.468;13.342;2022-09-17T14:17:47;15.90;98.40
4962;DHT22;2496;52.468;13.342;2022-09-17T14:20:16;16.00;98.10
4962;DHT22;2496;52.468;13.342;2022-09-17T14:22:53;16.10;97.80
4962;DHT22;2496;52.468;13.342;2022-09-17T14:25:22;16.10;97.50
4962;DHT22;2496;52.468;13.342;2022-09-17T14:27:56;16.10;97.40
4962;DHT22;2496;52.468;13.342;2022-09-17T14:30:25;16.10;97.30
4962;DHT22;2496;52.468;13.342;2022-09-17T14:33:02;16.10;97.50
4962;DHT22;2496;52.468;13.342;2022-09-17T14:35:34;16.10;98.00
4962;DHT22;2496;52.468;13.342;2022-09-17T14:38:08;16.10;99.80
4962;DHT22;2496;52.468;13.342;2022-09-17T14:40:41;16.00;99.90
4962;DHT22;2496;52.468;13.342;2022-09-17T14:43:16;15.80;99.90
4962;DHT22;2496;52.468;13.342;2022-09-17T14:45:47;15.60;99.90
4962;DHT22;2496;52.468;13.342;2022-09-17T14:48:29;15.30;99.90
4962;DHT22;2496;52.468;13.342;2022-09-17T14:51:22;15.20;99.90
4962;DHT22;2496;52.468;13.342;2022-09-17T14:54:07;15.10;99.90
4962;DHT22;2496;52.468;13.342;2022-09-17T14:56:43;14.90;99.90
4962;DHT22;2496;52.468;13.342;2022-09-17T14:59:20;14.90;99.90
4962;DHT22;2496;52.468;13.342;2022-09-17T15:01:48;14.90;99.90
4962;DHT22;2496;52.468;13.342;2022-09-17T15:04:20;14.90;99.90
4962;DHT22;2496;52.468;13.342;2022-09-17T15:06:47;14.90;99.90
4962;DHT22;2496;52.468;13.342;2022-09-17T15:09:21;14.90;99.90
4962;DHT22;2496;52.468;13.342;2022-09-17T15:11:50;14.90;99.90
4962;DHT22;2496;52.468;13.342;2022-09-17T15:14:21;14.90;99.90
4962;DHT22;2496;52.468;13.342;2022-09-17T15:16:50;14.90;99.90
4962;DHT22;2496;52.468;13.342;2022-09-17T15:19:21;14.80;99.90
4962;DHT22;2496;52.468;13.342;2022-09-17T15:21:51;14.80;99.90
4962;DHT22;2496;52.468;13.342;2022-09-17T15:24:35;14.80;99.90
4962;DHT22;2496;52.468;13.342;2022-09-17T15:27:08;14.80;99.90
4962;DHT22;2496;52.468;13.342;2022-09-17T15:29:39;14.70;99.90
4962;DHT22;2496;52.468;13.342;2022-09-17T15:32:10;14.70;99.90
4962;DHT22;2496;52.468;13.342;2022-09-17T15:34:38;14.70;99.90
4962;DHT22;2496;52.468;13.342;2022-09-17T15:37:06;14.70;99.90
4962;DHT22;2496;52.468;13.342;2022-09-17T15:39:46;14.70;99.90
4962;DHT22;2496;52.468;13.342;2022-09-17T15:42:20;14.60;99.90
4962;DHT22;2496;52.468;13.342;2022-09-17T15:44:47;14.60;99.80
4962;DHT22;2496;52.468;13.342;2022-09-17T15:47:35;14.40;99.30
4962;DHT22;2496;52.468;13.342;2022-09-17T15:50:12;14.40;99.60
4962;DHT22;2496;52.468;13.342;2022-09-17T15:52:39;14.30;99.80
4962;DHT22;2496;52.468;13.342;2022-09-17T15:55:29;14.30;99.90
4962;DHT22;2496;52.468;13.342;2022-09-17T15:57:57;14.30;99.90
4962;DHT22;2496;52.468;13.342;2022-09-17T16:00:24;14.30;99.70
4962;DHT22;2496;52.468;13.342;2022-09-17T16:02:51;14.30;99.80
4962;DHT22;2496;52.468;13.342;2022-09-17T16:05:43;14.20;99.80
4962;DHT22;2496;52.468;13.342;2022-09-17T16:08:20;14.20;99.80
4962;DHT22;2496;52.468;13.342;2022-09-17T16:10:48;14.10;99.90
4962;DHT22;2496;52.468;13.342;2022-09-17T16:13:15;14.10;99.90
4962;DHT22;2496;52.468;13.342;2022-09-17T16:15:42;14.00;99.90
4962;DHT22;2496;52.468;13.342;2022-09-17T16:18:11;13.90;99.90
4962;DHT22;2496;52.468;13.342;2022-09-17T16:20:39;13.80;99.90
4962;DHT22;2496;52.468;13.342;2022-09-17T16:23:06;13.80;99.90
4962;DHT22;2496;52.468;13.342;2022-09-17T16:25:33;13.80;99.90
4962;DHT22;2496;52.468;13.342;2022-09-17T16:28:03;13.70;99.90
4962;DHT22;2496;52.468;13.342;2022-09-17T16:30:32;13.70;99.90
4962;DHT22;2496;52.468;13.342;2022-09-17T16:32:59;13.70;99.90
4962;DHT22;2496;52.468;13.342;2022-09-17T16:35:28;13.70;99.90